Time;durP1;ratioP1;P1;durP2;ratioP2;P2;SDS_P1;SDS_P2;PMS_P1;PMS_P2;Temp;Humidity;BMP_temperature;BMP_pressure;BME280_temperature;BME280_humidity;BME280_pressure;Samples;Min_cycle;Max_cycle;Signal;HPM_P1;HPM_P2
2023/08/23 00:01:27;;;;;;;5.25;2.60;;;17.30;90.00;;;;;;5002751;28;20106;-77
2023/08/23 00:03:52;;;;;;;6.05;3.25;;;17.20;89.70;;;;;;5000801;28;20022;-78
2023/08/23 00:06:18;;;;;;;7.20;4.32;;;16.90;89.90;;;;;;5020269;28;20029;-78
2023/08/23 00:08:43;;;;;;;7.68;3.63;;;16.80;90.30;;;;;;5013956;28;20075;-78
2023/08/23 00:11:09;;;;;;;9.75;3.55;;;16.80;90.20;;;;;;5017200;28;20486;-78
2023/08/23 00:13:34;;;;;;;8.82;4.07;;;16.80;90.30;;;;;;5019247;28;20409;-78
2023/08/23 00:16:00;;;;;;;6.60;3.95;;;16.70;90.30;;;;;;5017397;28;20033;-78
2023/08/23 00:18:26;;;;;;;6.88;3.80;;;16.60;90.30;;;;;;4991383;28;20037;-78
2023/08/23 00:20:51;;;;;;;7.15;3.53;;;16.60;90.30;;;;;;4999517;28;20393;-77
2023/08/23 00:23:17;;;;;;;7.95;4.28;;;16.50;90.40;;;;;;4999353;28;20395;-77
2023/08/23 00:25:42;;;;;;;12.40;4.63;;;16.40;90.40;;;;;;5014004;28;20071;-77
2023/08/23 00:28:08;;;;;;;6.65;4.25;;;16.20;90.40;;;;;;5015524;28;20029;-77
2023/08/23 00:30:33;;;;;;;8.20;4.05;;;16.30;90.90;;;;;;4993007;28;20033;-78
2023/08/23 00:32:59;;;;;;;8.50;4.35;;;16.30;90.60;;;;;;5017766;28;20606;-77
2023/08/23 00:35:24;;;;;;;3.95;3.13;;;16.20;90.90;;;;;;4996703;28;20785;-78
2023/08/23 00:37:50;;;;;;;4.88;3.08;;;16.30;90.30;;;;;;4990716;28;20029;-77
2023/08/23 00:40:15;;;;;;;6.65;3.28;;;16.30;90.30;;;;;;5003067;28;20038;-77
2023/08/23 00:42:41;;;;;;;8.88;3.85;;;16.20;90.20;;;;;;4988176;28;20044;-79
2023/08/23 00:45:07;;;;;;;9.13;4.47;;;16.20;90.50;;;;;;5016935;28;20056;-78
2023/08/23 00:47:33;;;;;;;8.52;3.67;;;16.10;90.60;;;;;;4988975;28;20493;-78
2023/08/23 00:49:59;;;;;;;8.85;3.60;;;16.00;90.70;;;;;;5006112;28;20030;-78
2023/08/23 00:52:24;;;;;;;7.55;3.63;;;16.10;90.60;;;;;;5016851;28;20046;-77
2023/08/23 00:54:50;;;;;;;5.40;3.38;;;16.00;90.60;;;;;;4987517;28;20109;-78
2023/08/23 00:57:15;;;;;;;9.32;3.97;;;16.10;90.40;;;;;;5017026;28;20030;-78
2023/08/23 00:59:41;;;;;;;4.90;2.95;;;16.00;90.60;;;;;;5018350;28;20041;-77
2023/08/23 01:02:08;;;;;;;8.02;3.50;;;15.90;90.70;;;;;;5017203;28;20041;-78
2023/08/23 01:04:33;;;;;;;4.32;3.22;;;16.00;90.40;;;;;;5004279;28;20062;-77
2023/08/23 01:07:16;;;;;;;9.40;4.10;;;16.00;90.40;;;;;;4980350;28;20069;-77
2023/08/23 01:10:00;;;;;;;4.93;3.30;;;15.80;91.30;;;;;;5003125;28;20038;-77
2023/08/23 01:12:35;;;;;;;5.90;2.90;;;15.70;91.50;;;;;;5016013;28;20390;-77
2023/08/23 01:15:06;;;;;;;5.05;2.63;;;15.80;90.90;;;;;;5018230;28;20241;-77
2023/08/23 01:17:31;;;;;;;4.45;2.65;;;15.90;90.90;;;;;;5018191;28;20045;-77
2023/08/23 01:19:57;;;;;;;3.83;2.03;;;16.00;90.80;;;;;;4989024;28;20065;-78
2023/08/23 01:22:23;;;;;;;5.25;3.22;;;15.90;90.70;;;;;;5017653;28;20092;-77
2023/08/23 01:24:49;;;;;;;9.40;3.20;;;15.90;90.80;;;;;;5003713;28;20460;-78
2023/08/23 01:27:17;;;;;;;7.97;3.15;;;15.70;90.60;;;;;;4994362;28;20096;-78
2023/08/23 01:29:44;;;;;;;11.98;3.53;;;15.60;91.30;;;;;;5018460;28;20076;-78
2023/08/23 01:32:29;;;;;;;6.15;2.97;;;15.60;91.20;;;;;;5003185;28;20061;-78
2023/08/23 01:34:56;;;;;;;3.72;2.50;;;15.60;91.00;;;;;;5019492;28;20445;-77
2023/08/23 01:37:23;;;;;;;3.78;2.10;;;15.70;91.20;;;;;;5001312;28;20068;-77
2023/08/23 01:39:50;;;;;;;3.85;2.78;;;15.60;91.10;;;;;;4994860;28;20117;-78
2023/08/23 01:42:15;;;;;;;4.30;1.90;;;15.70;91.70;;;;;;5006336;28;20046;-77
2023/08/23 01:44:43;;;;;;;3.05;2.20;;;15.80;91.60;;;;;;5017159;28;20389;-77
2023/08/23 01:47:08;;;;;;;3.25;2.33;;;15.90;91.20;;;;;;5004230;28;20042;-78
2023/08/23 01:49:34;;;;;;;5.10;2.42;;;15.70;91.60;;;;;;4993539;28;20039;-78
2023/08/23 01:51:59;;;;;;;3.90;2.60;;;15.70;91.60;;;;;;5018309;28;20038;-78
2023/08/23 01:54:25;;;;;;;4.65;2.13;;;15.50;91.60;;;;;;5020037;28;20045;-78
2023/08/23 01:56:51;;;;;;;4.05;2.38;;;15.60;91.80;;;;;;4993019;28;20029;-77
2023/08/23 01:59:16;;;;;;;5.85;2.38;;;15.60;92.20;;;;;;5007766;28;20061;-77
2023/08/23 02:01:42;;;;;;;3.25;2.38;;;15.80;92.40;;;;;;5026061;28;20033;-77
2023/08/23 02:04:08;;;;;;;7.82;3.13;;;15.90;92.30;;;;;;5016871;28;20466;-77
2023/08/23 02:06:34;;;;;;;3.40;2.50;;;15.70;91.90;;;;;;5025983;28;20085;-77
2023/08/23 02:08:59;;;;;;;2.97;1.92;;;15.60;91.80;;;;;;5021681;28;20037;-77
2023/08/23 02:11:25;;;;;;;3.72;2.42;;;15.60;92.50;;;;;;5020863;28;20470;-77
2023/08/23 02:13:51;;;;;;;6.22;2.60;;;15.60;92.70;;;;;;4992982;28;20037;-77
2023/08/23 02:16:16;;;;;;;5.45;2.85;;;15.50;92.00;;;;;;5002608;28;20069;-77
2023/08/23 02:18:42;;;;;;;8.45;3.88;;;15.40;92.00;;;;;;5005642;28;20040;-77
2023/08/23 02:21:07;;;;;;;8.77;3.70;;;15.30;92.00;;;;;;4993834;28;20037;-77
2023/08/23 02:23:33;;;;;;;5.50;3.10;;;15.20;93.60;;;;;;5002798;28;20025;-78
2023/08/23 02:25:58;;;;;;;2.67;2.13;;;15.00;94.10;;;;;;5020551;28;20029;-77
2023/08/23 02:28:24;;;;;;;5.10;3.75;;;15.20;92.80;;;;;;5016588;28;20029;-77
2023/08/23 02:30:50;;;;;;;7.88;3.28;;;15.30;93.60;;;;;;5016274;28;20030;-78
2023/08/23 02:33:17;;;;;;;4.05;2.72;;;15.50;93.00;;;;;;5000074;28;20049;-77
2023/08/23 02:35:44;;;;;;;10.25;3.40;;;15.30;93.40;;;;;;5015505;28;20041;-78
2023/08/23 02:38:10;;;;;;;4.13;2.72;;;15.20;93.20;;;;;;5006949;28;20046;-78
2023/08/23 02:40:39;;;;;;;5.80;2.65;;;15.20;93.40;;;;;;5018447;28;20033;-79
2023/08/23 02:43:05;;;;;;;3.45;2.83;;;15.30;93.40;;;;;;5006574;28;20037;-77
2023/08/23 02:45:30;;;;;;;10.25;3.03;;;15.30;93.20;;;;;;5020381;28;20390;-77
2023/08/23 02:47:56;;;;;;;5.13;2.60;;;15.30;93.30;;;;;;4986248;28;20088;-78
2023/08/23 02:50:22;;;;;;;5.00;3.10;;;15.30;93.70;;;;;;5019934;28;20064;-78
2023/08/23 02:52:47;;;;;;;3.63;2.50;;;15.20;93.20;;;;;;4990339;28;20038;-78
2023/08/23 02:55:13;;;;;;;5.95;2.15;;;15.20;93.60;;;;;;5002471;28;20347;-79
2023/08/23 02:57:38;;;;;;;4.28;2.20;;;15.30;93.50;;;;;;5016851;28;20045;-78
2023/08/23 03:00:04;;;;;;;5.57;3.40;;;15.30;94.00;;;;;;5016422;28;20904;-78
2023/08/23 03:02:30;;;;;;;7.78;3.35;;;15.30;93.90;;;;;;5016718;28;20025;-78
2023/08/23 03:04:56;;;;;;;7.68;3.80;;;15.10;94.00;;;;;;5014446;28;20444;-78
2023/08/23 03:07:21;;;;;;;3.50;2.50;;;15.00;93.50;;;;;;4995608;28;20042;-78
2023/08/23 03:09:47;;;;;;;2.58;2.33;;;15.00;93.70;;;;;;5005575;28;20482;-78
2023/08/23 03:12:12;;;;;;;3.55;2.50;;;14.90;94.00;;;;;;5013948;28;20410;-78
2023/08/23 03:14:38;;;;;;;5.82;2.30;;;14.90;94.20;;;;;;5017862;28;20037;-78
2023/08/23 03:17:03;;;;;;;7.13;2.88;;;14.80;93.80;;;;;;5000563;28;20064;-77
2023/08/23 03:19:29;;;;;;;6.63;3.28;;;14.80;93.70;;;;;;5019890;28;20060;-79
2023/08/23 03:21:55;;;;;;;10.30;3.05;;;14.70;93.70;;;;;;5003486;28;20523;-78
2023/08/23 03:24:20;;;;;;;7.28;3.47;;;14.70;93.70;;;;;;5002935;28;20023;-78
2023/08/23 03:26:46;;;;;;;3.67;2.92;;;14.70;93.60;;;;;;5004817;28;20049;-78
2023/08/23 03:29:11;;;;;;;3.50;2.30;;;14.80;94.40;;;;;;5019699;28;20026;-78
2023/08/23 03:31:37;;;;;;;4.60;2.55;;;14.70;93.90;;;;;;5021519;28;20465;-78
2023/08/23 03:34:02;;;;;;;3.85;2.30;;;14.80;94.50;;;;;;5015089;28;20029;-78
2023/08/23 03:36:28;;;;;;;6.80;3.00;;;15.10;94.30;;;;;;5016180;28;20060;-78
2023/08/23 03:38:54;;;;;;;4.28;3.00;;;15.10;94.00;;;;;;5019704;28;20053;-78
2023/08/23 03:41:19;;;;;;;4.53;2.38;;;15.00;94.30;;;;;;4989668;28;20064;-79
2023/08/23 03:43:45;;;;;;;3.50;2.53;;;15.10;94.60;;;;;;5002735;28;20022;-78
2023/08/23 03:46:11;;;;;;;2.38;2.00;;;15.00;94.80;;;;;;5017708;28;20244;-78
2023/08/23 03:48:36;;;;;;;5.82;3.83;;;15.00;94.30;;;;;;5018436;28;20037;-78
2023/08/23 03:51:02;;;;;;;7.93;3.35;;;14.80;94.60;;;;;;5016376;28;20466;-78
2023/08/23 03:53:27;;;;;;;4.93;2.88;;;14.70;96.40;;;;;;5016283;28;20668;-77
2023/08/23 03:55:56;;;;;;;7.00;3.17;;;14.80;95.00;;;;;;5002913;28;20035;-78
2023/08/23 03:58:21;;;;;;;5.20;3.30;;;14.90;95.20;;;;;;5003365;28;20449;-78
2023/08/23 04:00:51;;;;;;;5.03;2.50;;;14.70;94.70;;;;;;5016553;28;20039;-78
2023/08/23 04:03:17;;;;;;;6.43;3.08;;;14.90;95.90;;;;;;4984305;28;20108;-77
2023/08/23 04:05:43;;;;;;;8.45;4.00;;;14.90;95.80;;;;;;5001639;28;20055;-78
2023/08/23 04:08:08;;;;;;;6.40;3.92;;;14.70;94.80;;;;;;5016416;28;20033;-77
2023/08/23 04:10:35;;;;;;;7.05;3.45;;;14.60;95.20;;;;;;4999221;28;20036;-77
2023/08/23 04:13:01;;;;;;;4.72;3.60;;;14.60;95.40;;;;;;5003347;28;20465;-77
2023/08/23 04:15:27;;;;;;;7.25;4.05;;;14.70;95.80;;;;;;5016615;28;20109;-77
2023/08/23 04:17:52;;;;;;;10.25;4.18;;;14.60;95.90;;;;;;5004923;28;20065;-77
2023/08/23 04:20:18;;;;;;;5.05;3.50;;;14.60;96.10;;;;;;5001189;28;20076;-78
2023/08/23 04:22:43;;;;;;;9.20;3.97;;;14.50;95.40;;;;;;5016630;28;20079;-78
2023/08/23 04:25:10;;;;;;;3.15;2.58;;;14.40;95.60;;;;;;4986170;28;20033;-78
2023/08/23 04:27:36;;;;;;;6.43;3.63;;;14.40;95.50;;;;;;4985736;28;20038;-78
2023/08/23 04:30:02;;;;;;;6.07;4.07;;;14.30;95.20;;;;;;5014954;28;20037;-77
2023/08/23 04:32:27;;;;;;;6.45;4.63;;;14.30;96.10;;;;;;5000594;28;20033;-77
2023/08/23 04:34:53;;;;;;;7.85;4.30;;;14.20;97.00;;;;;;4998153;28;20037;-77
2023/08/23 04:37:18;;;;;;;11.88;4.82;;;14.20;96.60;;;;;;5017424;28;20045;-77
2023/08/23 04:39:44;;;;;;;9.27;4.07;;;14.20;97.00;;;;;;5013197;28;20041;-78
2023/08/23 04:42:09;;;;;;;7.47;4.75;;;14.20;96.20;;;;;;4985699;28;20026;-78
2023/08/23 04:44:35;;;;;;;6.15;4.75;;;14.20;96.30;;;;;;4985644;28;20049;-78
2023/08/23 04:47:00;;;;;;;6.40;4.18;;;14.20;96.60;;;;;;5016575;28;20117;-78
2023/08/23 04:49:26;;;;;;;9.80;5.15;;;14.30;96.60;;;;;;5012688;28;20401;-78
2023/08/23 04:51:51;;;;;;;5.80;3.58;;;14.30;98.10;;;;;;5017499;28;20091;-78
2023/08/23 04:54:17;;;;;;;4.40;3.00;;;14.20;98.40;;;;;;5014661;28;20532;-78
2023/08/23 04:56:42;;;;;;;5.18;3.38;;;14.20;97.30;;;;;;4991457;28;20478;-77
2023/08/23 04:59:08;;;;;;;5.78;3.47;;;14.20;96.40;;;;;;5014975;28;20391;-78
2023/08/23 05:01:34;;;;;;;4.68;2.75;;;14.30;96.90;;;;;;5019243;28;20040;-77
2023/08/23 05:04:01;;;;;;;2.63;2.20;;;14.30;96.20;;;;;;4988946;28;20112;-77
2023/08/23 05:06:27;;;;;;;7.85;3.15;;;14.30;96.30;;;;;;5013489;28;20034;-78
2023/08/23 05:08:52;;;;;;;7.35;3.65;;;14.50;96.30;;;;;;4991638;28;20034;-77
2023/08/23 05:11:18;;;;;;;7.50;3.58;;;14.50;96.30;;;;;;5002563;28;20026;-77
2023/08/23 05:13:44;;;;;;;11.10;4.65;;;14.50;96.40;;;;;;5015946;28;20037;-77
2023/08/23 05:16:11;;;;;;;6.80;3.95;;;14.50;97.30;;;;;;5021133;28;20037;-77
2023/08/23 05:18:37;;;;;;;16.52;3.40;;;14.40;96.50;;;;;;5003022;28;20328;-77
2023/08/23 05:21:03;;;;;;;2.70;2.05;;;14.50;96.80;;;;;;4991914;28;20030;-77
2023/08/23 05:23:28;;;;;;;3.50;2.72;;;14.70;96.40;;;;;;5000283;28;20061;-77
2023/08/23 05:25:54;;;;;;;4.00;2.83;;;14.80;96.20;;;;;;5020034;28;20040;-77
2023/08/23 05:28:20;;;;;;;7.18;3.30;;;14.70;96.70;;;;;;5021324;28;20068;-77
2023/08/23 05:30:46;;;;;;;8.32;4.75;;;14.80;96.60;;;;;;5003551;28;20159;-76
2023/08/23 05:33:12;;;;;;;12.98;5.63;;;14.90;98.60;;;;;;5018323;28;20045;-76
2023/08/23 05:35:39;;;;;;;9.35;4.18;;;15.00;96.70;;;;;;5006839;28;20044;-76
2023/08/23 05:38:05;;;;;;;10.73;5.50;;;15.10;97.00;;;;;;5018244;28;20041;-77
2023/08/23 05:40:30;;;;;;;9.68;5.15;;;15.00;96.80;;;;;;5013804;28;20397;-77
2023/08/23 05:42:56;;;;;;;9.32;5.82;;;15.10;97.50;;;;;;4990407;28;20505;-77
2023/08/23 05:45:22;;;;;;;12.57;6.93;;;15.20;97.50;;;;;;5016094;28;20030;-77
2023/08/23 05:47:48;;;;;;;9.48;6.55;;;15.20;97.60;;;;;;5003855;28;20121;-77
2023/08/23 05:50:13;;;;;;;7.38;4.03;;;15.20;97.60;;;;;;4990990;28;20132;-77
2023/08/23 05:52:39;;;;;;;8.43;5.72;;;15.30;97.20;;;;;;5019257;28;20056;-77
2023/08/23 05:55:07;;;;;;;10.02;6.28;;;15.40;96.50;;;;;;5016845;28;20026;-78
2023/08/23 05:57:33;;;;;;;10.00;6.53;;;15.40;96.80;;;;;;5015269;28;21293;-77
2023/08/23 05:59:59;;;;;;;10.32;6.95;;;15.50;96.80;;;;;;5016085;28;20044;-78
2023/08/23 06:02:25;;;;;;;17.27;7.97;;;15.60;97.20;;;;;;4981961;28;20650;-78
2023/08/23 06:04:51;;;;;;;14.43;8.05;;;15.80;97.30;;;;;;5002079;28;20103;-77
2023/08/23 06:07:17;;;;;;;11.93;7.50;;;15.90;98.30;;;;;;5016963;28;20033;-77
2023/08/23 06:09:43;;;;;;;14.85;8.18;;;16.10;99.60;;;;;;5017510;28;20643;-77
2023/08/23 06:12:08;;;;;;;14.75;7.95;;;16.20;98.30;;;;;;4988088;28;20033;-77
2023/08/23 06:14:34;;;;;;;8.35;6.25;;;16.30;97.30;;;;;;4997058;28;20109;-78
2023/08/23 06:17:00;;;;;;;5.03;3.55;;;16.40;96.80;;;;;;4993784;28;20041;-76
2023/08/23 06:19:25;;;;;;;8.27;5.50;;;16.50;96.20;;;;;;5000722;28;20033;-77
2023/08/23 06:21:52;;;;;;;20.40;7.32;;;16.70;96.20;;;;;;5002410;28;20037;-80
2023/08/23 06:24:17;;;;;;;9.88;7.28;;;16.80;95.70;;;;;;5017046;28;20033;-78
2023/08/23 06:26:44;;;;;;;11.40;6.20;;;16.90;96.00;;;;;;5002171;28;20030;-77
2023/08/23 06:29:09;;;;;;;8.38;5.43;;;17.10;96.20;;;;;;5016690;28;20052;-78
2023/08/23 06:31:35;;;;;;;20.50;8.65;;;17.20;95.30;;;;;;5016497;28;20033;-78
2023/08/23 06:34:00;;;;;;;9.65;6.25;;;17.50;98.80;;;;;;4980919;28;20624;-78
2023/08/23 06:36:26;;;;;;;9.68;4.45;;;17.60;96.40;;;;;;5015199;28;20030;-78
2023/08/23 06:38:52;;;;;;;13.00;4.95;;;17.70;95.70;;;;;;5013180;28;20398;-77
2023/08/23 06:41:17;;;;;;;7.10;4.32;;;17.80;95.70;;;;;;5015783;28;20394;-78
2023/08/23 06:43:46;;;;;;;7.47;5.20;;;17.90;95.30;;;;;;5005024;28;20393;-79
2023/08/23 06:46:11;;;;;;;14.18;6.20;;;18.00;94.90;;;;;;4986438;28;20087;-80
2023/08/23 06:48:37;;;;;;;16.20;7.28;;;18.00;95.20;;;;;;4983843;28;20050;-78
2023/08/23 06:51:03;;;;;;;7.60;6.30;;;18.00;94.80;;;;;;4986283;28;20029;-78
2023/08/23 06:53:28;;;;;;;19.08;9.82;;;18.10;94.40;;;;;;5014893;28;20518;-79
2023/08/23 06:55:54;;;;;;;14.77;9.07;;;18.10;95.20;;;;;;5015744;28;20037;-78
2023/08/23 06:58:20;;;;;;;11.38;4.97;;;18.20;94.60;;;;;;5016372;28;20169;-79
2023/08/23 07:00:46;;;;;;;15.85;8.43;;;18.30;94.30;;;;;;5002581;28;20080;-78
2023/08/23 07:03:11;;;;;;;18.13;9.93;;;18.50;95.10;;;;;;5000331;28;20452;-79
2023/08/23 07:05:37;;;;;;;16.85;9.63;;;18.60;95.60;;;;;;5015279;28;20030;-79
2023/08/23 07:08:03;;;;;;;11.60;5.18;;;18.70;97.00;;;;;;4992570;28;20025;-79
2023/08/23 07:10:29;;;;;;;7.82;3.92;;;18.90;95.10;;;;;;5004160;28;20397;-78
2023/08/23 07:12:55;;;;;;;19.35;8.25;;;19.10;94.50;;;;;;4989282;28;20482;-79
2023/08/23 07:15:21;;;;;;;6.20;4.03;;;19.20;94.10;;;;;;4978959;28;20030;-78
2023/08/23 07:17:48;;;;;;;9.52;5.60;;;19.30;93.80;;;;;;4998856;28;20029;-78
2023/08/23 07:20:14;;;;;;;18.52;10.55;;;19.40;92.90;;;;;;4988840;28;20561;-78
2023/08/23 07:22:40;;;;;;;9.70;4.40;;;19.50;94.10;;;;;;5016449;28;20037;-78
2023/08/23 07:25:07;;;;;;;8.75;4.68;;;19.70;93.40;;;;;;4999559;28;20080;-77
2023/08/23 07:27:32;;;;;;;21.60;10.55;;;19.80;92.80;;;;;;5001283;28;20489;-77
2023/08/23 07:29:58;;;;;;;8.00;4.30;;;20.00;94.60;;;;;;4982323;28;20040;-79
2023/08/23 07:32:24;;;;;;;16.02;7.18;;;20.20;93.00;;;;;;5013419;28;20041;-78
2023/08/23 07:34:50;;;;;;;7.97;4.13;;;20.30;93.00;;;;;;4988522;28;20044;-78
2023/08/23 07:37:18;;;;;;;9.98;4.47;;;20.40;92.80;;;;;;5000777;28;20034;-78
2023/08/23 07:39:44;;;;;;;12.38;6.45;;;20.50;92.50;;;;;;5005963;28;20122;-79
2023/08/23 07:42:09;;;;;;;10.93;4.38;;;20.70;92.50;;;;;;5000745;28;20179;-78
2023/08/23 07:44:35;;;;;;;20.23;9.75;;;20.90;92.70;;;;;;4999486;28;20033;-78
2023/08/23 07:47:01;;;;;;;10.18;4.15;;;21.00;93.00;;;;;;5017109;28;20520;-78
2023/08/23 07:49:27;;;;;;;8.13;4.47;;;21.20;92.60;;;;;;4999709;28;20141;-78
2023/08/23 07:51:52;;;;;;;7.10;4.22;;;21.30;92.80;;;;;;5002197;28;20057;-78
2023/08/23 07:54:18;;;;;;;7.85;4.72;;;21.50;93.60;;;;;;4988331;28;20037;-78
2023/08/23 07:56:43;;;;;;;14.57;7.10;;;21.80;93.80;;;;;;4994561;28;20033;-79
2023/08/23 07:59:09;;;;;;;9.73;4.85;;;22.20;93.40;;;;;;5016577;28;20117;-78
2023/08/23 08:01:34;;;;;;;12.80;6.65;;;22.20;93.20;;;;;;5014492;28;20469;-78
2023/08/23 08:04:00;;;;;;;11.25;6.18;;;22.50;93.10;;;;;;5014606;28;20545;-78
2023/08/23 08:06:25;;;;;;;12.23;5.15;;;22.80;92.60;;;;;;5011376;28;20045;-79
2023/08/23 08:08:51;;;;;;;6.10;3.47;;;22.50;92.70;;;;;;5004380;28;20473;-78
2023/08/23 08:11:18;;;;;;;8.35;4.75;;;22.50;92.60;;;;;;4999119;28;20048;-78
2023/08/23 08:13:43;;;;;;;6.50;4.53;;;22.60;93.50;;;;;;5013373;28;20033;-78
2023/08/23 08:16:09;;;;;;;15.48;7.53;;;23.10;92.70;;;;;;5012702;28;20025;-79
2023/08/23 08:18:35;;;;;;;9.75;4.88;;;23.20;92.70;;;;;;5020740;28;20086;-79
2023/08/23 08:21:01;;;;;;;8.63;4.47;;;23.20;93.30;;;;;;4986371;28;20121;-78
2023/08/23 08:23:28;;;;;;;21.30;9.18;;;23.30;93.10;;;;;;4987529;28;20033;-78
2023/08/23 08:25:55;;;;;;;11.80;5.50;;;23.40;94.20;;;;;;5001677;28;20124;-78
2023/08/23 08:28:21;;;;;;;14.38;8.13;;;23.40;93.90;;;;;;5003889;28;20120;-78
2023/08/23 08:30:47;;;;;;;14.27;7.28;;;23.60;93.90;;;;;;5004334;28;20743;-78
2023/08/23 08:33:12;;;;;;;10.23;6.18;;;23.70;93.50;;;;;;4999903;28;20519;-78
2023/08/23 08:35:38;;;;;;;12.27;8.20;;;23.90;93.40;;;;;;4997533;28;20042;-78
2023/08/23 08:38:04;;;;;;;10.70;5.85;;;24.00;94.00;;;;;;5012592;28;20152;-78
2023/08/23 08:40:30;;;;;;;11.40;4.65;;;24.20;93.60;;;;;;5015151;28;20049;-78
2023/08/23 08:42:56;;;;;;;18.02;7.15;;;24.40;93.30;;;;;;4987685;28;20049;-78
2023/08/23 08:45:21;;;;;;;7.93;4.07;;;24.90;92.00;;;;;;4998331;28;20033;-78
2023/08/23 08:47:47;;;;;;;9.43;4.88;;;24.70;92.90;;;;;;5000366;28;20099;-78
2023/08/23 08:50:13;;;;;;;10.75;5.22;;;25.40;91.80;;;;;;5016442;28;20038;-78
2023/08/23 08:52:42;;;;;;;11.35;4.75;;;25.10;92.20;;;;;;5015475;28;20037;-78
2023/08/23 08:55:07;;;;;;;11.50;6.00;;;25.20;92.30;;;;;;5013465;28;20693;-79
2023/08/23 08:57:33;;;;;;;11.05;3.75;;;25.20;92.10;;;;;;4986758;28;20087;-79
2023/08/23 08:59:59;;;;;;;9.23;4.57;;;25.30;92.10;;;;;;4988535;28;20064;-79
2023/08/23 09:02:25;;;;;;;10.95;5.57;;;25.50;91.80;;;;;;4986700;28;20057;-79
2023/08/23 09:04:51;;;;;;;8.00;4.30;;;25.70;92.20;;;;;;4998424;28;20507;-78
2023/08/23 09:07:16;;;;;;;9.52;3.40;;;25.80;92.00;;;;;;4983294;28;20034;-79
2023/08/23 09:09:43;;;;;;;6.00;3.22;;;25.90;92.30;;;;;;5015011;28;20026;-79
2023/08/23 09:12:09;;;;;;;6.55;3.70;;;26.10;91.60;;;;;;5000552;28;20549;-79
2023/08/23 09:14:34;;;;;;;7.80;4.07;;;26.50;91.60;;;;;;5017825;28;20030;-79
2023/08/23 09:17:00;;;;;;;8.40;3.83;;;26.30;91.10;;;;;;5002167;28;20105;-78
2023/08/23 09:19:26;;;;;;;8.82;2.63;;;26.60;91.40;;;;;;5011533;28;20030;-77
2023/08/23 09:21:51;;;;;;;5.47;3.05;;;26.70;91.00;;;;;;4998642;28;20521;-77
2023/08/23 09:24:18;;;;;;;7.28;3.00;;;26.90;89.90;;;;;;5017549;28;20120;-76
2023/08/23 09:26:44;;;;;;;6.32;3.05;;;26.70;91.50;;;;;;5015339;28;20032;-77
2023/08/23 09:29:10;;;;;;;10.55;4.28;;;26.80;90.70;;;;;;5015881;28;20026;-79
2023/08/23 09:31:35;;;;;;;6.07;2.70;;;27.10;90.80;;;;;;5001589;28;20496;-79
2023/08/23 09:34:01;;;;;;;3.58;2.63;;;27.00;89.90;;;;;;4982769;28;20100;-77
2023/08/23 09:36:31;;;;;;;5.68;2.20;;;26.90;90.10;;;;;;4980799;28;20068;-77
2023/08/23 09:38:59;;;;;;;3.15;2.08;;;27.20;89.70;;;;;;5014304;28;20464;-77
2023/08/23 09:41:25;;;;;;;3.20;1.90;;;27.20;89.10;;;;;;5014342;28;20083;-77
2023/08/23 09:43:52;;;;;;;1.98;1.58;;;27.60;87.20;;;;;;5019925;28;20038;-78
2023/08/23 09:46:23;;;;;;;4.65;2.17;;;27.60;89.60;;;;;;5016134;28;20042;-78
2023/08/23 09:48:49;;;;;;;3.65;2.30;;;27.60;90.00;;;;;;5001557;28;20030;-79
2023/08/23 09:51:14;;;;;;;5.03;2.10;;;28.20;86.30;;;;;;5014944;28;20439;-79
2023/08/23 09:53:40;;;;;;;2.88;1.83;;;28.40;85.90;;;;;;5014058;28;20449;-80
2023/08/23 09:56:06;;;;;;;6.07;2.50;;;28.70;82.30;;;;;;5002434;28;20046;-80
2023/08/23 09:58:32;;;;;;;7.88;2.58;;;28.50;84.20;;;;;;5013279;28;20064;-80
2023/08/23 10:00:57;;;;;;;7.22;2.42;;;28.90;81.90;;;;;;5020244;28;20034;-80
2023/08/23 10:03:23;;;;;;;3.00;1.77;;;28.80;85.40;;;;;;5016474;28;20026;-79
2023/08/23 10:05:49;;;;;;;3.28;1.80;;;28.70;85.50;;;;;;5004261;28;20045;-78
2023/08/23 10:08:15;;;;;;;7.95;2.75;;;28.50;86.90;;;;;;5016827;28;20049;-79
2023/08/23 10:10:42;;;;;;;5.30;2.33;;;28.30;87.50;;;;;;5019421;28;20452;-78
2023/08/23 10:13:07;;;;;;;4.00;2.97;;;28.30;87.70;;;;;;4994370;28;20417;-78
2023/08/23 10:15:36;;;;;;;4.63;2.15;;;28.60;87.10;;;;;;4668903;28;10000075;-79
2023/08/23 10:18:02;;;;;;;9.55;3.75;;;28.50;87.30;;;;;;5005139;28;20501;-78
2023/08/23 10:20:32;;;;;;;3.08;1.85;;;28.70;86.80;;;;;;5015431;28;20501;-78
2023/08/23 10:22:58;;;;;;;3.90;1.90;;;29.00;86.20;;;;;;5002328;28;20552;-78
2023/08/23 10:25:24;;;;;;;6.57;2.05;;;29.10;84.60;;;;;;4999041;28;20061;-79
2023/08/23 10:27:55;;;;;;;5.15;1.85;;;29.60;83.20;;;;;;4994035;28;20080;-78
2023/08/23 10:30:24;;;;;;;5.13;1.63;;;30.00;80.70;;;;;;5017428;28;20120;-79
2023/08/23 10:32:50;;;;;;;2.92;1.90;;;30.20;81.20;;;;;;4988968;28;20042;-79
2023/08/23 10:35:34;;;;;;;3.13;1.60;;;29.80;82.50;;;;;;5022452;28;20042;-79
2023/08/23 10:38:01;;;;;;;9.20;2.65;;;30.30;78.00;;;;;;5014622;28;20425;-79
2023/08/23 10:40:28;;;;;;;6.32;2.28;;;31.00;76.20;;;;;;5012313;28;20034;-79
2023/08/23 10:42:54;;;;;;;5.03;1.75;;;31.10;76.50;;;;;;4999726;28;20033;-79
2023/08/23 10:45:19;;;;;;;5.07;2.13;;;31.50;75.30;;;;;;4990335;28;20503;-80
2023/08/23 10:47:45;;;;;;;5.72;2.33;;;31.00;79.30;;;;;;5004852;28;20128;-79
2023/08/23 10:50:11;;;;;;;3.00;2.40;;;30.90;78.40;;;;;;4990425;28;20037;-79
2023/08/23 10:52:36;;;;;;;4.40;3.13;;;31.90;74.10;;;;;;4984937;28;20805;-79
2023/08/23 10:55:02;;;;;;;4.30;2.00;;;32.30;72.90;;;;;;5018625;28;20544;-79
2023/08/23 10:57:27;;;;;;;3.70;2.67;;;32.30;73.30;;;;;;4990833;28;20416;-79
2023/08/23 10:59:53;;;;;;;4.75;2.63;;;32.10;76.50;;;;;;4992949;28;20061;-79
2023/08/23 11:02:19;;;;;;;6.32;3.38;;;32.50;71.20;;;;;;5019302;28;20030;-80
2023/08/23 11:04:44;;;;;;;5.38;2.65;;;32.60;74.80;;;;;;5004416;28;20030;-80
2023/08/23 11:07:11;;;;;;;5.22;2.72;;;32.50;75.80;;;;;;5016355;28;20493;-79
2023/08/23 11:09:36;;;;;;;3.15;1.80;;;32.90;72.10;;;;;;4986595;28;20030;-80
2023/08/23 11:12:04;;;;;;;3.25;1.55;;;32.60;74.20;;;;;;5002291;28;20079;-80
2023/08/23 11:14:29;;;;;;;4.10;1.67;;;32.60;73.10;;;;;;4995774;28;20040;-80
2023/08/23 11:16:55;;;;;;;4.63;2.40;;;32.60;72.80;;;;;;5001437;28;20746;-80
2023/08/23 11:19:21;;;;;;;4.68;2.10;;;32.70;74.30;;;;;;5004315;28;20052;-80
2023/08/23 11:21:46;;;;;;;8.55;3.10;;;32.40;75.30;;;;;;5004658;28;20033;-80
2023/08/23 11:24:13;;;;;;;14.85;2.45;;;32.20;73.70;;;;;;5015015;28;20125;-80
2023/08/23 11:26:38;;;;;;;5.20;2.65;;;32.20;74.50;;;;;;5019137;28;20037;-80
2023/08/23 11:29:04;;;;;;;4.38;2.10;;;32.10;74.20;;;;;;5000926;28;20026;-79
2023/08/23 11:31:32;;;;;;;5.32;2.35;;;32.50;72.70;;;;;;5016018;28;20022;-81
2023/08/23 11:33:58;;;;;;;7.05;1.80;;;32.30;74.20;;;;;;5002161;28;20033;-80
2023/08/23 11:36:24;;;;;;;8.98;2.00;;;32.40;74.60;;;;;;5016621;28;20030;-78
2023/08/23 11:38:50;;;;;;;4.25;2.65;;;32.80;71.20;;;;;;5005607;28;20482;-80
2023/08/23 11:41:26;;;;;;;4.93;2.17;;;32.80;71.30;;;;;;4982543;28;20033;-81
2023/08/23 11:43:52;;;;;;;4.88;2.80;;;32.50;72.70;;;;;;5000457;28;20042;-80
2023/08/23 11:46:18;;;;;;;6.68;2.60;;;32.60;71.90;;;;;;4986081;28;20037;-80
2023/08/23 11:48:43;;;;;;;4.82;2.40;;;32.60;72.20;;;;;;4979293;28;20561;-80
2023/08/23 11:51:09;;;;;;;3.50;2.40;;;32.70;71.70;;;;;;5000627;28;20421;-77
2023/08/23 11:53:34;;;;;;;4.35;1.95;;;32.70;71.60;;;;;;4996696;28;20042;-78
2023/08/23 11:56:00;;;;;;;4.25;2.35;;;33.20;68.00;;;;;;4985694;28;20052;-79
2023/08/23 11:58:26;;;;;;;4.43;2.80;;;33.20;68.60;;;;;;5012685;28;20038;-79
2023/08/23 12:00:51;;;;;;;3.08;2.10;;;33.10;70.10;;;;;;4988548;28;20036;-79
2023/08/23 12:03:17;;;;;;;5.60;2.45;;;33.00;71.20;;;;;;5000055;28;20030;-79
2023/08/23 12:05:42;;;;;;;3.83;2.85;;;33.70;68.10;;;;;;4985063;28;20375;-78
2023/08/23 12:08:08;;;;;;;5.40;2.50;;;33.90;67.30;;;;;;4987098;28;20079;-80
2023/08/23 12:10:33;;;;;;;4.50;2.20;;;34.00;67.40;;;;;;5000885;28;20145;-78
2023/08/23 12:12:59;;;;;;;7.03;4.55;;;33.90;66.60;;;;;;5018189;28;20033;-78
2023/08/23 12:15:25;;;;;;;2.88;2.33;;;33.50;67.20;;;;;;5002915;28;20045;-78
2023/08/23 12:17:53;;;;;;;4.80;3.25;;;33.10;69.60;;;;;;5000610;28;20619;-78
2023/08/23 12:20:19;;;;;;;3.90;2.70;;;33.00;67.20;;;;;;4999170;28;20029;-79
2023/08/23 12:22:47;;;;;;;6.40;3.33;;;33.20;68.60;;;;;;5002131;28;20032;-78
2023/08/23 12:25:13;;;;;;;5.43;3.35;;;33.20;69.00;;;;;;5003086;28;20118;-79
2023/08/23 12:27:39;;;;;;;4.75;3.10;;;33.10;68.90;;;;;;5019824;28;20045;-79
2023/08/23 12:30:05;;;;;;;5.72;2.85;;;33.80;66.20;;;;;;4986478;28;20418;-78
2023/08/23 12:32:31;;;;;;;8.65;3.15;;;34.10;67.00;;;;;;4984319;28;20150;-79
2023/08/23 12:34:57;;;;;;;3.83;3.00;;;34.60;64.60;;;;;;5019937;28;20058;-80
2023/08/23 12:37:22;;;;;;;4.28;2.70;;;34.40;64.90;;;;;;4983492;28;20078;-79
2023/08/23 12:39:49;;;;;;;8.05;3.25;;;33.90;67.60;;;;;;5013975;28;20102;-79